sensor_id;sensor_type;location;lat;lon;timestamp;P1;durP1;ratioP1;P2;durP2;ratioP2
70335;SDS011;57756;47.408;18.940;2022-08-25T00:02:03;7.87;;;3.70;;
70335;SDS011;57756;47.408;18.940;2022-08-25T00:04:30;7.03;;;3.58;;
70335;SDS011;57756;47.408;18.940;2022-08-25T00:06:56;7.22;;;4.05;;
70335;SDS011;57756;47.408;18.940;2022-08-25T00:09:23;7.70;;;3.67;;
70335;SDS011;57756;47.408;18.940;2022-08-25T00:11:51;8.15;;;3.90;;
70335;SDS011;57756;47.408;18.940;2022-08-25T00:14:22;7.57;;;3.72;;
70335;SDS011;57756;47.408;18.940;2022-08-25T00:16:52;9.05;;;4.10;;
70335;SDS011;57756;47.408;18.940;2022-08-25T00:19:19;8.70;;;3.47;;
70335;SDS011;57756;47.408;18.940;2022-08-25T00:21:47;7.10;;;3.95;;
70335;SDS011;57756;47.408;18.940;2022-08-25T00:24:14;8.10;;;3.57;;
70335;SDS011;57756;47.408;18.940;2022-08-25T00:26:41;6.47;;;3.50;;
70335;SDS011;57756;47.408;18.940;2022-08-25T00:29:09;7.75;;;3.60;;
70335;SDS011;57756;47.408;18.940;2022-08-25T00:31:35;6.90;;;3.80;;
70335;SDS011;57756;47.408;18.940;2022-08-25T00:34:02;11.50;;;4.05;;
70335;SDS011;57756;47.408;18.940;2022-08-25T00:36:31;7.50;;;3.58;;
70335;SDS011;57756;47.408;18.940;2022-08-25T00:38:58;9.20;;;3.67;;
70335;SDS011;57756;47.408;18.940;2022-08-25T00:41:23;7.68;;;4.05;;
70335;SDS011;57756;47.408;18.940;2022-08-25T00:43:53;6.57;;;3.80;;
70335;SDS011;57756;47.408;18.940;2022-08-25T00:46:24;8.00;;;3.72;;
70335;SDS011;57756;47.408;18.940;2022-08-25T00:48:57;8.70;;;3.97;;
70335;SDS011;57756;47.408;18.940;2022-08-25T00:51:38;6.35;;;3.72;;
70335;SDS011;57756;47.408;18.940;2022-08-25T00:54:07;9.70;;;3.53;;
70335;SDS011;57756;47.408;18.940;2022-08-25T00:56:41;8.17;;;3.50;;
70335;SDS011;57756;47.408;18.940;2022-08-25T00:59:07;10.50;;;3.47;;
70335;SDS011;57756;47.408;18.940;2022-08-25T01:01:33;8.80;;;3.80;;
70335;SDS011;57756;47.408;18.940;2022-08-25T01:03:59;7.15;;;3.65;;
70335;SDS011;57756;47.408;18.940;2022-08-25T01:06:26;7.63;;;3.53;;
70335;SDS011;57756;47.408;18.940;2022-08-25T01:08:55;8.55;;;3.78;;
70335;SDS011;57756;47.408;18.940;2022-08-25T01:11:20;7.40;;;3.30;;
70335;SDS011;57756;47.408;18.940;2022-08-25T01:13:48;8.30;;;3.93;;
70335;SDS011;57756;47.408;18.940;2022-08-25T01:16:17;7.63;;;4.20;;
70335;SDS011;57756;47.408;18.940;2022-08-25T01:21:16;9.07;;;3.97;;
70335;SDS011;57756;47.408;18.940;2022-08-25T01:23:44;10.10;;;4.63;;
70335;SDS011;57756;47.408;18.940;2022-08-25T01:28:38;9.85;;;4.07;;
70335;SDS011;57756;47.408;18.940;2022-08-25T01:31:25;8.27;;;3.67;;
70335;SDS011;57756;47.408;18.940;2022-08-25T01:33:51;13.05;;;3.95;;
70335;SDS011;57756;47.408;18.940;2022-08-25T01:36:18;7.90;;;3.73;;
70335;SDS011;57756;47.408;18.940;2022-08-25T01:38:44;7.72;;;3.95;;
70335;SDS011;57756;47.408;18.940;2022-08-25T01:41:09;11.30;;;3.83;;
70335;SDS011;57756;47.408;18.940;2022-08-25T01:43:36;6.70;;;3.50;;
70335;SDS011;57756;47.408;18.940;2022-08-25T01:46:03;8.33;;;3.80;;
70335;SDS011;57756;47.408;18.940;2022-08-25T01:48:28;8.27;;;3.55;;
70335;SDS011;57756;47.408;18.940;2022-08-25T01:50:54;8.27;;;3.90;;
70335;SDS011;57756;47.408;18.940;2022-08-25T01:53:25;6.30;;;3.22;;
70335;SDS011;57756;47.408;18.940;2022-08-25T01:55:53;6.93;;;3.87;;
70335;SDS011;57756;47.408;18.940;2022-08-25T01:58:31;10.63;;;4.20;;
70335;SDS011;57756;47.408;18.940;2022-08-25T02:00:59;9.30;;;4.20;;
70335;SDS011;57756;47.408;18.940;2022-08-25T02:03:27;7.93;;;3.88;;
70335;SDS011;57756;47.408;18.940;2022-08-25T02:05:53;9.52;;;4.25;;
70335;SDS011;57756;47.408;18.940;2022-08-25T02:08:21;7.47;;;3.87;;
70335;SDS011;57756;47.408;18.940;2022-08-25T02:10:47;7.43;;;4.15;;
70335;SDS011;57756;47.408;18.940;2022-08-25T02:13:14;7.20;;;3.80;;
70335;SDS011;57756;47.408;18.940;2022-08-25T02:15:44;9.10;;;4.32;;
70335;SDS011;57756;47.408;18.940;2022-08-25T02:18:12;6.03;;;3.25;;
70335;SDS011;57756;47.408;18.940;2022-08-25T02:20:38;9.93;;;4.50;;
70335;SDS011;57756;47.408;18.940;2022-08-25T02:23:04;9.00;;;4.15;;
70335;SDS011;57756;47.408;18.940;2022-08-25T02:25:30;9.57;;;3.83;;
70335;SDS011;57756;47.408;18.940;2022-08-25T02:27:55;10.60;;;4.33;;
70335;SDS011;57756;47.408;18.940;2022-08-25T02:30:21;8.57;;;4.25;;
70335;SDS011;57756;47.408;18.940;2022-08-25T02:32:47;6.72;;;3.47;;
70335;SDS011;57756;47.408;18.940;2022-08-25T02:35:13;6.80;;;3.83;;
70335;SDS011;57756;47.408;18.940;2022-08-25T02:37:38;9.75;;;4.10;;
70335;SDS011;57756;47.408;18.940;2022-08-25T02:40:04;7.67;;;3.67;;
70335;SDS011;57756;47.408;18.940;2022-08-25T02:42:30;8.40;;;3.95;;
70335;SDS011;57756;47.408;18.940;2022-08-25T02:44:56;7.43;;;3.93;;
70335;SDS011;57756;47.408;18.940;2022-08-25T02:47:22;6.68;;;3.65;;
70335;SDS011;57756;47.408;18.940;2022-08-25T02:49:47;10.00;;;4.03;;
70335;SDS011;57756;47.408;18.940;2022-08-25T02:52:13;7.28;;;4.00;;
70335;SDS011;57756;47.408;18.940;2022-08-25T02:54:39;9.38;;;4.03;;
70335;SDS011;57756;47.408;18.940;2022-08-25T02:57:06;7.93;;;3.93;;
70335;SDS011;57756;47.408;18.940;2022-08-25T02:59:32;9.73;;;4.18;;
70335;SDS011;57756;47.408;18.940;2022-08-25T03:01:59;6.68;;;3.97;;
70335;SDS011;57756;47.408;18.940;2022-08-25T03:04:25;10.23;;;3.87;;
70335;SDS011;57756;47.408;18.940;2022-08-25T03:06:51;8.18;;;4.30;;
70335;SDS011;57756;47.408;18.940;2022-08-25T03:09:16;9.43;;;4.00;;
70335;SDS011;57756;47.408;18.940;2022-08-25T03:11:42;10.50;;;4.80;;
70335;SDS011;57756;47.408;18.940;2022-08-25T03:14:07;8.38;;;4.35;;
70335;SDS011;57756;47.408;18.940;2022-08-25T03:16:35;10.13;;;4.60;;
70335;SDS011;57756;47.408;18.940;2022-08-25T03:19:01;7.70;;;4.10;;
70335;SDS011;57756;47.408;18.940;2022-08-25T03:21:28;9.20;;;4.20;;
70335;SDS011;57756;47.408;18.940;2022-08-25T03:23:54;8.82;;;4.50;;
70335;SDS011;57756;47.408;18.940;2022-08-25T03:26:20;5.78;;;3.65;;
70335;SDS011;57756;47.408;18.940;2022-08-25T03:29:04;8.30;;;3.83;;
70335;SDS011;57756;47.408;18.940;2022-08-25T03:31:32;7.82;;;3.83;;
70335;SDS011;57756;47.408;18.940;2022-08-25T03:33:58;7.47;;;4.03;;
70335;SDS011;57756;47.408;18.940;2022-08-25T03:36:25;8.30;;;3.78;;
70335;SDS011;57756;47.408;18.940;2022-08-25T03:38:51;11.30;;;4.20;;
70335;SDS011;57756;47.408;18.940;2022-08-25T03:41:22;6.95;;;4.05;;
70335;SDS011;57756;47.408;18.940;2022-08-25T03:43:50;8.30;;;4.20;;
70335;SDS011;57756;47.408;18.940;2022-08-25T03:46:16;8.85;;;4.13;;
70335;SDS011;57756;47.408;18.940;2022-08-25T03:48:47;10.55;;;4.60;;
70335;SDS011;57756;47.408;18.940;2022-08-25T03:51:17;9.48;;;4.30;;
70335;SDS011;57756;47.408;18.940;2022-08-25T03:53:45;7.50;;;3.70;;
70335;SDS011;57756;47.408;18.940;2022-08-25T03:56:10;9.85;;;4.00;;
70335;SDS011;57756;47.408;18.940;2022-08-25T03:58:36;6.80;;;3.70;;
70335;SDS011;57756;47.408;18.940;2022-08-25T04:01:01;7.80;;;3.90;;
70335;SDS011;57756;47.408;18.940;2022-08-25T04:03:27;8.35;;;4.18;;
70335;SDS011;57756;47.408;18.940;2022-08-25T04:05:53;7.93;;;3.83;;
70335;SDS011;57756;47.408;18.940;2022-08-25T04:08:18;8.73;;;4.70;;
70335;SDS011;57756;47.408;18.940;2022-08-25T04:10:44;8.07;;;4.70;;
70335;SDS011;57756;47.408;18.940;2022-08-25T04:13:09;10.67;;;4.53;;
70335;SDS011;57756;47.408;18.940;2022-08-25T04:15:37;11.75;;;4.68;;
70335;SDS011;57756;47.408;18.940;2022-08-25T04:18:07;7.47;;;4.35;;
70335;SDS011;57756;47.408;18.940;2022-08-25T04:20:32;9.73;;;4.90;;
70335;SDS011;57756;47.408;18.940;2022-08-25T04:22:58;10.90;;;4.65;;
70335;SDS011;57756;47.408;18.940;2022-08-25T04:25:26;11.47;;;5.00;;
70335;SDS011;57756;47.408;18.940;2022-08-25T04:27:52;8.38;;;4.43;;
70335;SDS011;57756;47.408;18.940;2022-08-25T04:30:19;8.98;;;5.25;;
70335;SDS011;57756;47.408;18.940;2022-08-25T04:32:45;9.80;;;4.20;;
70335;SDS011;57756;47.408;18.940;2022-08-25T04:35:12;12.68;;;5.20;;
70335;SDS011;57756;47.408;18.940;2022-08-25T04:37:38;10.77;;;4.90;;
70335;SDS011;57756;47.408;18.940;2022-08-25T04:40:04;9.80;;;4.80;;
70335;SDS011;57756;47.408;18.940;2022-08-25T04:42:30;10.48;;;4.68;;
70335;SDS011;57756;47.408;18.940;2022-08-25T04:44:56;10.43;;;4.72;;
70335;SDS011;57756;47.408;18.940;2022-08-25T04:47:24;8.23;;;4.47;;
70335;SDS011;57756;47.408;18.940;2022-08-25T04:49:50;10.60;;;4.65;;
70335;SDS011;57756;47.408;18.940;2022-08-25T04:52:16;7.83;;;4.40;;
70335;SDS011;57756;47.408;18.940;2022-08-25T04:54:41;9.68;;;5.53;;
70335;SDS011;57756;47.408;18.940;2022-08-25T04:57:07;9.25;;;5.22;;
70335;SDS011;57756;47.408;18.940;2022-08-25T04:59:33;9.13;;;4.60;;
70335;SDS011;57756;47.408;18.940;2022-08-25T05:01:59;8.32;;;4.88;;
70335;SDS011;57756;47.408;18.940;2022-08-25T05:04:29;12.32;;;5.13;;
70335;SDS011;57756;47.408;18.940;2022-08-25T05:06:57;10.13;;;5.30;;
70335;SDS011;57756;47.408;18.940;2022-08-25T05:09:23;9.55;;;5.20;;
70335;SDS011;57756;47.408;18.940;2022-08-25T05:11:49;10.80;;;5.05;;
70335;SDS011;57756;47.408;18.940;2022-08-25T05:14:14;10.73;;;5.40;;
70335;SDS011;57756;47.408;18.940;2022-08-25T05:16:42;11.15;;;5.13;;
70335;SDS011;57756;47.408;18.940;2022-08-25T05:19:08;8.68;;;4.90;;
70335;SDS011;57756;47.408;18.940;2022-08-25T05:21:34;8.67;;;5.07;;
70335;SDS011;57756;47.408;18.940;2022-08-25T05:24:01;10.80;;;5.30;;
70335;SDS011;57756;47.408;18.940;2022-08-25T05:26:27;11.52;;;5.53;;
70335;SDS011;57756;47.408;18.940;2022-08-25T05:28:55;9.30;;;5.07;;
70335;SDS011;57756;47.408;18.940;2022-08-25T05:31:22;10.40;;;4.57;;
70335;SDS011;57756;47.408;18.940;2022-08-25T05:33:48;9.32;;;4.78;;
70335;SDS011;57756;47.408;18.940;2022-08-25T05:36:15;10.48;;;5.47;;
70335;SDS011;57756;47.408;18.940;2022-08-25T05:38:41;9.23;;;4.15;;
70335;SDS011;57756;47.408;18.940;2022-08-25T05:41:08;9.68;;;4.97;;
70335;SDS011;57756;47.408;18.940;2022-08-25T05:43:37;10.13;;;4.90;;
70335;SDS011;57756;47.408;18.940;2022-08-25T05:46:04;7.97;;;4.57;;
70335;SDS011;57756;47.408;18.940;2022-08-25T05:48:30;8.70;;;4.35;;
70335;SDS011;57756;47.408;18.940;2022-08-25T05:51:00;10.73;;;5.00;;
70335;SDS011;57756;47.408;18.940;2022-08-25T05:53:28;9.60;;;4.70;;
70335;SDS011;57756;47.408;18.940;2022-08-25T05:55:56;9.20;;;4.15;;
70335;SDS011;57756;47.408;18.940;2022-08-25T05:58:23;9.52;;;4.65;;
70335;SDS011;57756;47.408;18.940;2022-08-25T06:00:51;8.13;;;4.07;;
70335;SDS011;57756;47.408;18.940;2022-08-25T06:03:17;6.90;;;4.10;;
70335;SDS011;57756;47.408;18.940;2022-08-25T06:05:42;9.33;;;4.20;;
70335;SDS011;57756;47.408;18.940;2022-08-25T06:08:08;9.05;;;4.60;;
70335;SDS011;57756;47.408;18.940;2022-08-25T06:10:34;9.17;;;4.60;;
70335;SDS011;57756;47.408;18.940;2022-08-25T06:13:00;10.20;;;4.75;;
70335;SDS011;57756;47.408;18.940;2022-08-25T06:15:25;8.37;;;4.27;;
70335;SDS011;57756;47.408;18.940;2022-08-25T06:17:51;9.43;;;4.82;;
70335;SDS011;57756;47.408;18.940;2022-08-25T06:20:22;9.02;;;4.45;;
70335;SDS011;57756;47.408;18.940;2022-08-25T06:22:52;9.35;;;4.35;;
70335;SDS011;57756;47.408;18.940;2022-08-25T06:25:19;7.07;;;4.40;;
70335;SDS011;57756;47.408;18.940;2022-08-25T06:27:47;8.90;;;4.40;;
70335;SDS011;57756;47.408;18.940;2022-08-25T06:30:13;8.02;;;4.20;;
70335;SDS011;57756;47.408;18.940;2022-08-25T06:32:42;7.80;;;4.18;;
70335;SDS011;57756;47.408;18.940;2022-08-25T06:35:09;6.38;;;3.33;;
70335;SDS011;57756;47.408;18.940;2022-08-25T06:37:36;7.33;;;3.47;;
70335;SDS011;57756;47.408;18.940;2022-08-25T06:40:03;9.32;;;3.67;;
70335;SDS011;57756;47.408;18.940;2022-08-25T06:42:30;7.47;;;3.75;;
70335;SDS011;57756;47.408;18.940;2022-08-25T06:44:56;9.33;;;4.53;;
70335;SDS011;57756;47.408;18.940;2022-08-25T06:47:21;6.73;;;3.30;;
70335;SDS011;57756;47.408;18.940;2022-08-25T06:49:47;8.43;;;4.10;;
70335;SDS011;57756;47.408;18.940;2022-08-25T06:52:13;7.20;;;3.63;;
70335;SDS011;57756;47.408;18.940;2022-08-25T06:54:39;7.45;;;3.22;;
70335;SDS011;57756;47.408;18.940;2022-08-25T06:59:40;9.85;;;3.40;;
70335;SDS011;57756;47.408;18.940;2022-08-25T07:02:06;8.23;;;3.47;;
70335;SDS011;57756;47.408;18.940;2022-08-25T07:04:32;8.20;;;3.77;;
70335;SDS011;57756;47.408;18.940;2022-08-25T07:06:58;7.28;;;3.85;;
70335;SDS011;57756;47.408;18.940;2022-08-25T07:09:24;7.50;;;3.57;;
70335;SDS011;57756;47.408;18.940;2022-08-25T07:11:49;7.18;;;3.42;;
70335;SDS011;57756;47.408;18.940;2022-08-25T07:14:16;10.02;;;4.57;;
70335;SDS011;57756;47.408;18.940;2022-08-25T07:16:43;6.32;;;3.60;;
70335;SDS011;57756;47.408;18.940;2022-08-25T07:19:09;9.20;;;4.03;;
70335;SDS011;57756;47.408;18.940;2022-08-25T07:21:36;5.78;;;3.45;;
70335;SDS011;57756;47.408;18.940;2022-08-25T07:24:04;8.20;;;3.70;;
70335;SDS011;57756;47.408;18.940;2022-08-25T07:26:35;7.17;;;4.10;;
70335;SDS011;57756;47.408;18.940;2022-08-25T07:29:03;7.70;;;3.13;;
70335;SDS011;57756;47.408;18.940;2022-08-25T07:31:34;8.25;;;3.45;;
70335;SDS011;57756;47.408;18.940;2022-08-25T07:33:59;5.73;;;3.27;;
70335;SDS011;57756;47.408;18.940;2022-08-25T07:36:43;6.80;;;2.90;;
70335;SDS011;57756;47.408;18.940;2022-08-25T07:39:09;4.82;;;2.72;;
70335;SDS011;57756;47.408;18.940;2022-08-25T07:41:36;5.53;;;2.70;;
70335;SDS011;57756;47.408;18.940;2022-08-25T07:44:03;7.57;;;3.08;;
70335;SDS011;57756;47.408;18.940;2022-08-25T07:46:29;7.28;;;2.67;;
70335;SDS011;57756;47.408;18.940;2022-08-25T07:48:54;7.07;;;3.03;;
70335;SDS011;57756;47.408;18.940;2022-08-25T07:51:20;5.85;;;3.17;;
70335;SDS011;57756;47.408;18.940;2022-08-25T07:53:46;5.57;;;2.30;;
70335;SDS011;57756;47.408;18.940;2022-08-25T07:56:12;5.57;;;2.28;;
70335;SDS011;57756;47.408;18.940;2022-08-25T07:58:39;4.93;;;2.45;;
70335;SDS011;57756;47.408;18.940;2022-08-25T08:01:06;5.70;;;2.23;;
70335;SDS011;57756;47.408;18.940;2022-08-25T08:03:37;6.00;;;2.55;;
70335;SDS011;57756;47.408;18.940;2022-08-25T08:06:06;6.67;;;2.70;;
70335;SDS011;57756;47.408;18.940;2022-08-25T08:08:37;4.60;;;2.93;;
70335;SDS011;57756;47.408;18.940;2022-08-25T08:11:16;5.20;;;2.88;;
70335;SDS011;57756;47.408;18.940;2022-08-25T08:13:44;6.78;;;2.95;;
70335;SDS011;57756;47.408;18.940;2022-08-25T08:16:11;4.88;;;2.53;;
70335;SDS011;57756;47.408;18.940;2022-08-25T08:18:38;5.10;;;3.03;;
70335;SDS011;57756;47.408;18.940;2022-08-25T08:21:05;6.70;;;3.03;;
70335;SDS011;57756;47.408;18.940;2022-08-25T08:23:36;6.22;;;2.78;;
70335;SDS011;57756;47.408;18.940;2022-08-25T08:26:02;5.40;;;2.60;;
70335;SDS011;57756;47.408;18.940;2022-08-25T08:28:28;7.97;;;2.53;;
70335;SDS011;57756;47.408;18.940;2022-08-25T08:30:54;7.15;;;2.90;;
70335;SDS011;57756;47.408;18.940;2022-08-25T08:33:20;5.10;;;2.90;;
70335;SDS011;57756;47.408;18.940;2022-08-25T08:35:46;8.43;;;2.67;;
70335;SDS011;57756;47.408;18.940;2022-08-25T08:38:12;5.50;;;2.75;;
70335;SDS011;57756;47.408;18.940;2022-08-25T08:40:41;5.93;;;3.00;;
70335;SDS011;57756;47.408;18.940;2022-08-25T08:43:32;5.95;;;2.88;;
70335;SDS011;57756;47.408;18.940;2022-08-25T08:45:58;7.10;;;2.40;;
70335;SDS011;57756;47.408;18.940;2022-08-25T08:53:53;4.95;;;2.40;;
70335;SDS011;57756;47.408;18.940;2022-08-25T08:56:27;6.28;;;2.80;;
70335;SDS011;57756;47.408;18.940;2022-08-25T08:58:57;4.90;;;2.87;;
70335;SDS011;57756;47.408;18.940;2022-08-25T09:01:28;6.28;;;2.85;;
70335;SDS011;57756;47.408;18.940;2022-08-25T09:07:07;9.18;;;3.28;;
70335;SDS011;57756;47.408;18.940;2022-08-25T09:09:37;5.28;;;3.00;;
70335;SDS011;57756;47.408;18.940;2022-08-25T09:12:09;5.67;;;2.37;;
70335;SDS011;57756;47.408;18.940;2022-08-25T09:18:50;6.07;;;2.75;;
70335;SDS011;57756;47.408;18.940;2022-08-25T09:21:45;6.30;;;2.80;;
70335;SDS011;57756;47.408;18.940;2022-08-25T09:24:50;3.97;;;2.47;;
70335;SDS011;57756;47.408;18.940;2022-08-25T09:27:05;4.70;;;2.53;;
70335;SDS011;57756;47.408;18.940;2022-08-25T09:29:53;5.85;;;2.70;;
70335;SDS011;57756;47.408;18.940;2022-08-25T09:32:21;4.45;;;2.50;;
70335;SDS011;57756;47.408;18.940;2022-08-25T09:34:46;7.15;;;2.70;;
70335;SDS011;57756;47.408;18.940;2022-08-25T09:37:14;5.10;;;3.07;;
70335;SDS011;57756;47.408;18.940;2022-08-25T09:39:40;3.83;;;2.17;;
70335;SDS011;57756;47.408;18.940;2022-08-25T09:42:06;3.80;;;2.63;;
70335;SDS011;57756;47.408;18.940;2022-08-25T09:44:33;7.47;;;2.63;;
70335;SDS011;57756;47.408;18.940;2022-08-25T09:47:24;5.00;;;2.63;;
70335;SDS011;57756;47.408;18.940;2022-08-25T09:49:58;5.82;;;2.78;;
70335;SDS011;57756;47.408;18.940;2022-08-25T10:00:22;6.53;;;2.67;;
70335;SDS011;57756;47.408;18.940;2022-08-25T10:03:02;5.28;;;2.80;;
70335;SDS011;57756;47.408;18.940;2022-08-25T10:08:12;6.38;;;2.58;;
70335;SDS011;57756;47.408;18.940;2022-08-25T10:10:52;5.63;;;3.15;;
70335;SDS011;57756;47.408;18.940;2022-08-25T10:13:19;4.87;;;2.63;;
70335;SDS011;57756;47.408;18.940;2022-08-25T10:15:47;4.68;;;2.25;;
70335;SDS011;57756;47.408;18.940;2022-08-25T10:18:29;5.65;;;2.50;;
70335;SDS011;57756;47.408;18.940;2022-08-25T10:21:11;5.40;;;2.17;;
70335;SDS011;57756;47.408;18.940;2022-08-25T10:23:40;5.38;;;2.85;;
70335;SDS011;57756;47.408;18.940;2022-08-25T10:29:14;6.88;;;2.90;;
70335;SDS011;57756;47.408;18.940;2022-08-25T10:32:29;6.88;;;2.90;;
70335;SDS011;57756;47.408;18.940;2022-08-25T10:34:55;4.30;;;2.50;;
70335;SDS011;57756;47.408;18.940;2022-08-25T10:45:34;4.72;;;2.50;;
70335;SDS011;57756;47.408;18.940;2022-08-25T10:56:13;5.85;;;2.50;;
70335;SDS011;57756;47.408;18.940;2022-08-25T11:03:51;5.28;;;2.47;;
70335;SDS011;57756;47.408;18.940;2022-08-25T11:06:24;4.18;;;2.67;;
70335;SDS011;57756;47.408;18.940;2022-08-25T11:09:04;5.80;;;2.67;;
70335;SDS011;57756;47.408;18.940;2022-08-25T11:11:38;4.90;;;2.70;;
70335;SDS011;57756;47.408;18.940;2022-08-25T11:14:15;5.20;;;2.77;;
70335;SDS011;57756;47.408;18.940;2022-08-25T11:16:50;5.70;;;2.83;;
70335;SDS011;57756;47.408;18.940;2022-08-25T11:19:25;3.95;;;2.10;;
70335;SDS011;57756;47.408;18.940;2022-08-25T11:22:22;3.92;;;2.38;;
70335;SDS011;57756;47.408;18.940;2022-08-25T11:27:57;5.60;;;3.10;;
70335;SDS011;57756;47.408;18.940;2022-08-25T11:30:23;4.53;;;2.80;;
70335;SDS011;57756;47.408;18.940;2022-08-25T11:32:49;6.07;;;2.75;;
70335;SDS011;57756;47.408;18.940;2022-08-25T11:35:25;5.47;;;2.63;;
70335;SDS011;57756;47.408;18.940;2022-08-25T11:41:44;4.65;;;2.45;;
70335;SDS011;57756;47.408;18.940;2022-08-25T11:44:04;6.25;;;2.85;;
70335;SDS011;57756;47.408;18.940;2022-08-25T11:49:52;5.47;;;2.20;;
70335;SDS011;57756;47.408;18.940;2022-08-25T11:57:34;5.75;;;2.53;;
70335;SDS011;57756;47.408;18.940;2022-08-25T12:00:05;4.40;;;2.60;;
70335;SDS011;57756;47.408;18.940;2022-08-25T12:02:42;4.63;;;2.43;;
70335;SDS011;57756;47.408;18.940;2022-08-25T12:05:09;5.50;;;2.20;;
70335;SDS011;57756;47.408;18.940;2022-08-25T12:10:52;4.60;;;2.42;;
70335;SDS011;57756;47.408;18.940;2022-08-25T12:13:24;6.13;;;2.50;;
70335;SDS011;57756;47.408;18.940;2022-08-25T12:16:01;4.33;;;2.33;;
70335;SDS011;57756;47.408;18.940;2022-08-25T12:25:53;5.05;;;2.22;;
70335;SDS011;57756;47.408;18.940;2022-08-25T12:28:32;3.15;;;2.08;;
70335;SDS011;57756;47.408;18.940;2022-08-25T12:31:16;4.43;;;2.70;;
70335;SDS011;57756;47.408;18.940;2022-08-25T12:33:54;4.43;;;2.60;;
70335;SDS011;57756;47.408;18.940;2022-08-25T12:36:53;4.77;;;2.60;;
70335;SDS011;57756;47.408;18.940;2022-08-25T12:39:22;4.95;;;2.28;;
70335;SDS011;57756;47.408;18.940;2022-08-25T12:41:56;5.00;;;2.40;;
70335;SDS011;57756;47.408;18.940;2022-08-25T12:47:12;3.95;;;2.70;;
70335;SDS011;57756;47.408;18.940;2022-08-25T12:49:44;3.67;;;2.27;;
70335;SDS011;57756;47.408;18.940;2022-08-25T12:52:17;5.45;;;2.40;;
70335;SDS011;57756;47.408;18.940;2022-08-25T12:54:56;4.53;;;2.42;;
70335;SDS011;57756;47.408;18.940;2022-08-25T12:59:51;5.40;;;2.17;;
70335;SDS011;57756;47.408;18.940;2022-08-25T13:18:11;4.70;;;2.50;;
70335;SDS011;57756;47.408;18.940;2022-08-25T13:20:46;4.47;;;2.80;;
70335;SDS011;57756;47.408;18.940;2022-08-25T13:23:15;5.57;;;2.15;;
70335;SDS011;57756;47.408;18.940;2022-08-25T13:25:51;5.95;;;2.40;;
70335;SDS011;57756;47.408;18.940;2022-08-25T13:28:28;5.20;;;2.10;;
70335;SDS011;57756;47.408;18.940;2022-08-25T13:31:02;5.60;;;2.90;;
70335;SDS011;57756;47.408;18.940;2022-08-25T13:33:29;5.35;;;2.65;;
70335;SDS011;57756;47.408;18.940;2022-08-25T13:35:57;3.60;;;2.40;;
70335;SDS011;57756;47.408;18.940;2022-08-25T13:38:42;5.57;;;2.45;;
70335;SDS011;57756;47.408;18.940;2022-08-25T13:41:10;4.55;;;2.53;;
70335;SDS011;57756;47.408;18.940;2022-08-25T13:43:40;4.60;;;2.70;;
70335;SDS011;57756;47.408;18.940;2022-08-25T13:46:06;3.92;;;2.55;;
70335;SDS011;57756;47.408;18.940;2022-08-25T13:48:34;4.37;;;2.40;;
70335;SDS011;57756;47.408;18.940;2022-08-25T13:53:34;6.07;;;2.38;;
70335;SDS011;57756;47.408;18.940;2022-08-25T13:56:00;4.33;;;2.20;;
70335;SDS011;57756;47.408;18.940;2022-08-25T13:58:29;4.53;;;2.78;;
70335;SDS011;57756;47.408;18.940;2022-08-25T14:03:32;5.10;;;2.53;;
70335;SDS011;57756;47.408;18.940;2022-08-25T14:08:36;7.53;;;2.60;;
70335;SDS011;57756;47.408;18.940;2022-08-25T14:11:14;5.38;;;2.50;;
70335;SDS011;57756;47.408;18.940;2022-08-25T14:14:08;6.80;;;2.80;;
70335;SDS011;57756;47.408;18.940;2022-08-25T14:17:05;5.07;;;2.55;;
70335;SDS011;57756;47.408;18.940;2022-08-25T14:19:34;5.73;;;2.70;;
70335;SDS011;57756;47.408;18.940;2022-08-25T14:22:01;4.55;;;2.30;;
70335;SDS011;57756;47.408;18.940;2022-08-25T14:24:30;5.95;;;2.40;;
70335;SDS011;57756;47.408;18.940;2022-08-25T14:26:57;6.30;;;2.55;;
70335;SDS011;57756;47.408;18.940;2022-08-25T14:29:22;7.30;;;2.50;;
70335;SDS011;57756;47.408;18.940;2022-08-25T14:31:48;3.37;;;2.30;;
70335;SDS011;57756;47.408;18.940;2022-08-25T14:34:22;3.67;;;2.35;;
70335;SDS011;57756;47.408;18.940;2022-08-25T14:36:51;4.43;;;2.25;;
70335;SDS011;57756;47.408;18.940;2022-08-25T14:39:17;6.80;;;2.80;;
70335;SDS011;57756;47.408;18.940;2022-08-25T14:41:43;5.38;;;2.17;;
70335;SDS011;57756;47.408;18.940;2022-08-25T14:44:13;5.10;;;2.50;;
70335;SDS011;57756;47.408;18.940;2022-08-25T14:46:43;4.35;;;2.47;;
70335;SDS011;57756;47.408;18.940;2022-08-25T14:49:19;4.93;;;2.60;;
70335;SDS011;57756;47.408;18.940;2022-08-25T14:51:53;4.23;;;2.20;;
70335;SDS011;57756;47.408;18.940;2022-08-25T14:54:20;4.63;;;2.25;;
70335;SDS011;57756;47.408;18.940;2022-08-25T14:56:50;3.33;;;2.10;;
70335;SDS011;57756;47.408;18.940;2022-08-25T14:59:15;4.53;;;2.20;;
70335;SDS011;57756;47.408;18.940;2022-08-25T15:01:41;4.95;;;2.30;;
70335;SDS011;57756;47.408;18.940;2022-08-25T15:04:09;4.30;;;2.30;;
70335;SDS011;57756;47.408;18.940;2022-08-25T15:06:38;6.67;;;2.63;;
70335;SDS011;57756;47.408;18.940;2022-08-25T15:09:09;5.15;;;2.08;;
70335;SDS011;57756;47.408;18.940;2022-08-25T15:11:44;4.55;;;2.58;;
70335;SDS011;57756;47.408;18.940;2022-08-25T15:14:12;6.15;;;2.10;;
70335;SDS011;57756;47.408;18.940;2022-08-25T15:16:45;5.25;;;2.30;;
70335;SDS011;57756;47.408;18.940;2022-08-25T15:19:14;4.97;;;2.27;;
70335;SDS011;57756;47.408;18.940;2022-08-25T15:21:42;4.68;;;1.90;;
70335;SDS011;57756;47.408;18.940;2022-08-25T15:24:09;5.05;;;2.20;;
70335;SDS011;57756;47.408;18.940;2022-08-25T15:26:50;5.82;;;2.22;;
70335;SDS011;57756;47.408;18.940;2022-08-25T15:29:18;5.32;;;2.30;;
70335;SDS011;57756;47.408;18.940;2022-08-25T15:31:44;5.43;;;2.33;;
70335;SDS011;57756;47.408;18.940;2022-08-25T15:34:10;5.13;;;2.08;;
70335;SDS011;57756;47.408;18.940;2022-08-25T15:36:36;6.53;;;2.60;;
70335;SDS011;57756;47.408;18.940;2022-08-25T15:39:02;4.60;;;2.30;;
70335;SDS011;57756;47.408;18.940;2022-08-25T15:41:29;5.00;;;2.30;;
70335;SDS011;57756;47.408;18.940;2022-08-25T15:43:55;5.22;;;2.50;;
70335;SDS011;57756;47.408;18.940;2022-08-25T15:46:22;4.68;;;2.53;;
70335;SDS011;57756;47.408;18.940;2022-08-25T15:48:49;4.00;;;1.97;;
70335;SDS011;57756;47.408;18.940;2022-08-25T15:51:15;4.60;;;2.10;;
70335;SDS011;57756;47.408;18.940;2022-08-25T15:53:42;3.42;;;2.00;;
70335;SDS011;57756;47.408;18.940;2022-08-25T15:56:09;5.17;;;2.20;;
70335;SDS011;57756;47.408;18.940;2022-08-25T15:58:38;4.30;;;1.98;;
70335;SDS011;57756;47.408;18.940;2022-08-25T16:01:04;4.45;;;2.20;;
70335;SDS011;57756;47.408;18.940;2022-08-25T16:03:30;5.03;;;2.20;;
70335;SDS011;57756;47.408;18.940;2022-08-25T16:05:56;5.00;;;2.67;;
70335;SDS011;57756;47.408;18.940;2022-08-25T16:08:21;4.03;;;2.13;;
70335;SDS011;57756;47.408;18.940;2022-08-25T16:10:47;5.07;;;2.58;;
70335;SDS011;57756;47.408;18.940;2022-08-25T16:13:12;4.03;;;2.20;;
70335;SDS011;57756;47.408;18.940;2022-08-25T16:15:38;5.35;;;2.28;;
70335;SDS011;57756;47.408;18.940;2022-08-25T16:18:04;4.77;;;2.57;;
70335;SDS011;57756;47.408;18.940;2022-08-25T16:20:31;5.47;;;2.45;;
70335;SDS011;57756;47.408;18.940;2022-08-25T16:22:57;4.93;;;1.90;;
70335;SDS011;57756;47.408;18.940;2022-08-25T16:25:26;3.95;;;2.30;;
70335;SDS011;57756;47.408;18.940;2022-08-25T16:27:52;3.80;;;2.05;;
70335;SDS011;57756;47.408;18.940;2022-08-25T16:30:18;4.87;;;2.00;;
70335;SDS011;57756;47.408;18.940;2022-08-25T16:32:44;5.53;;;2.33;;
70335;SDS011;57756;47.408;18.940;2022-08-25T16:35:10;7.80;;;2.30;;